Time;durP1;ratioP1;P1;durP2;ratioP2;P2;SDS_P1;SDS_P2;PMS_P1;PMS_P2;Temp;Humidity;BMP_temperature;BMP_pressure;BME280_temperature;BME280_humidity;BME280_pressure;Samples;Min_cycle;Max_cycle;Signal;HPM_P1;HPM_P2
2021/09/18 07:24:55;;;;;;;11.75;5.68;;;;;;;;;;4995771;28;20086;-79
2021/09/18 07:27:21;;;;;;;10.00;5.28;;;;;;;;;;4997395;28;20027;-90
2021/09/18 12:53:58;;;;;;;3.38;2.40;;;;;;;;;;5651740;23;20136;-84
2021/09/18 12:56:32;;;;;;;5.18;2.08;;;;;;;;;;4993532;28;20506;-81
2021/09/18 12:59:12;;;;;;;2.78;2.13;;;;;;;;;;4986776;28;20065;-84
2021/09/18 13:01:37;;;;;;;;;;;;;;;;;;4983775;28;20535;-77
2021/09/18 13:04:05;;;;;;;4.13;2.30;;;;;;;;;;4982745;28;19918;-84
2021/09/18 13:06:31;;;;;;;4.57;2.35;;;;;;;;;;4995114;28;20268;-84
2021/09/18 13:09:05;;;;;;;4.13;2.50;;;;;;;;;;4995196;28;20026;-83
2021/09/18 13:11:58;;;;;;;3.75;2.53;;;;;;;;;;4994903;28;20029;-85
2021/09/18 13:14:31;;;;;;;3.58;2.50;;;;;;;;;;4973488;28;20050;-85
2021/09/18 13:17:23;;;;;;;3.47;2.75;;;;;;;;;;4975595;28;20038;-85
2021/09/18 13:19:48;;;;;;;4.05;2.53;;;;;;;;;;4975411;28;20031;-85
2021/09/18 13:22:15;;;;;;;3.80;2.25;;;;;;;;;;4975577;28;20855;-85
2021/09/18 13:24:42;;;;;;;3.08;1.77;;;;;;;;;;4975599;28;20026;-85
2021/09/18 13:27:08;;;;;;;3.47;2.05;;;;;;;;;;4975496;28;20031;-77
2021/09/18 13:29:34;;;;;;;4.35;2.35;;;;;;;;;;4981145;28;20026;-85
2021/09/18 13:31:59;;;;;;;2.47;2.20;;;;;;;;;;4996139;28;20511;-93
2021/09/18 13:34:24;;;;;;;4.18;1.88;;;;;;;;;;4997527;28;20053;-85
2021/09/18 13:36:51;;;;;;;2.22;1.90;;;;;;;;;;4995071;28;20161;-85
2021/09/18 13:39:17;;;;;;;3.28;2.30;;;;;;;;;;4995696;28;20029;-81
2021/09/18 13:41:43;;;;;;;3.70;2.10;;;;;;;;;;4994327;28;20117;-85
2021/09/18 13:44:08;;;;;;;5.78;2.42;;;;;;;;;;4993148;28;20117;-85
2021/09/18 13:46:34;;;;;;;3.42;2.10;;;;;;;;;;4994422;28;20154;-77
2021/09/18 13:48:59;;;;;;;4.30;2.58;;;;;;;;;;4993125;28;20057;-77
2021/09/18 13:51:25;;;;;;;2.30;2.10;;;;;;;;;;4994239;28;20037;-77
2021/09/18 13:53:50;;;;;;;4.53;2.17;;;;;;;;;;4994275;28;20042;-85
2021/09/18 13:56:16;;;;;;;3.20;1.90;;;;;;;;;;4992752;28;20026;-86
2021/09/18 13:58:42;;;;;;;4.60;2.75;;;;;;;;;;4994484;28;20110;-77
2021/09/18 14:01:07;;;;;;;5.50;3.00;;;;;;;;;;4994361;28;20033;-78
2021/09/18 14:03:34;;;;;;;4.25;2.42;;;;;;;;;;4993111;28;20110;-82
2021/09/18 14:06:03;;;;;;;3.10;2.50;;;;;;;;;;4994021;28;20033;-77
2021/09/18 14:08:29;;;;;;;4.00;2.45;;;;;;;;;;4986777;28;20109;-84
2021/09/18 14:10:56;;;;;;;3.22;2.50;;;;;;;;;;4974768;28;20031;-77
2021/09/18 14:13:21;;;;;;;3.63;2.80;;;;;;;;;;4974695;28;20050;-85
2021/09/18 14:15:48;;;;;;;4.47;3.15;;;;;;;;;;4974631;28;20061;-78
2021/09/18 14:18:15;;;;;;;3.58;3.28;;;;;;;;;;4974362;28;20497;-76
2021/09/18 14:20:44;;;;;;;6.93;3.03;;;;;;;;;;4974611;28;20085;-86
2021/09/18 14:23:10;;;;;;;4.65;3.15;;;;;;;;;;4974712;28;20031;-77
2021/09/18 14:25:35;;;;;;;3.03;2.72;;;;;;;;;;4974244;28;20031;-86
2021/09/18 14:28:01;;;;;;;5.28;3.40;;;;;;;;;;4974542;28;20030;-80
2021/09/18 14:30:26;;;;;;;3.50;3.20;;;;;;;;;;4974621;28;20037;-80
2021/09/18 14:32:52;;;;;;;3.63;3.05;;;;;;;;;;4974446;28;20050;-80
2021/09/18 14:35:18;;;;;;;5.18;3.38;;;;;;;;;;4957013;28;20444;-79
2021/09/18 14:37:43;;;;;;;4.20;2.80;;;;;;;;;;4974457;28;20031;-87
2021/09/18 14:40:12;;;;;;;3.97;2.85;;;;;;;;;;4957540;28;20034;-78
2021/09/18 14:42:38;;;;;;;3.80;3.22;;;;;;;;;;4974340;28;20025;-88
2021/09/18 14:45:04;;;;;;;3.72;2.90;;;;;;;;;;4974445;28;20027;-86
2021/09/18 14:47:30;;;;;;;5.80;4.07;;;;;;;;;;4956723;28;20126;-82
2021/09/18 14:49:55;;;;;;;5.80;4.32;;;;;;;;;;4974296;28;20107;-81
2021/09/18 14:52:21;;;;;;;3.30;3.00;;;;;;;;;;4974482;28;20051;-79
2021/09/18 14:54:46;;;;;;;3.55;2.72;;;;;;;;;;4960090;28;20078;-87
2021/09/18 14:57:12;;;;;;;3.88;2.97;;;;;;;;;;4977953;28;20096;-85
2021/09/18 14:59:37;;;;;;;3.55;3.25;;;;;;;;;;4977961;28;20031;-87
2021/09/18 15:02:04;;;;;;;4.47;2.97;;;;;;;;;;4978167;28;20023;-83
2021/09/18 15:04:29;;;;;;;5.63;3.00;;;;;;;;;;4990481;28;20157;-85
2021/09/18 15:06:55;;;;;;;4.57;2.65;;;;;;;;;;4996102;28;20480;-86
2021/09/18 15:09:20;;;;;;;8.73;2.80;;;;;;;;;;4991153;28;20027;-86
2021/09/18 15:11:45;;;;;;;4.22;3.20;;;;;;;;;;4971170;28;20031;-79
2021/09/18 15:14:11;;;;;;;6.28;3.50;;;;;;;;;;4997272;28;20385;-80
2021/09/18 15:16:36;;;;;;;7.47;3.58;;;;;;;;;;4996731;28;20027;-83
2021/09/18 15:19:02;;;;;;;5.93;3.50;;;;;;;;;;4997159;28;20354;-79
2021/09/18 15:21:28;;;;;;;5.82;4.15;;;;;;;;;;4979833;28;20023;-80
2021/09/18 15:23:53;;;;;;;16.38;11.48;;;;;;;;;;4997196;28;20077;-87
2021/09/18 15:26:19;;;;;;;8.30;7.50;;;;;;;;;;4997081;28;20038;-79
2021/09/18 15:28:44;;;;;;;7.93;6.10;;;;;;;;;;4997301;28;20026;-79
2021/09/18 15:31:10;;;;;;;5.70;4.43;;;;;;;;;;4997074;28;20026;-79
2021/09/18 15:33:35;;;;;;;6.18;5.07;;;;;;;;;;4996948;28;20033;-88
2021/09/18 15:36:00;;;;;;;5.22;3.47;;;;;;;;;;4996892;28;20532;-87
2021/09/18 15:38:26;;;;;;;5.00;3.45;;;;;;;;;;4996897;28;20034;-87
2021/09/18 15:40:51;;;;;;;4.15;3.30;;;;;;;;;;4997195;28;20480;-87
2021/09/18 15:43:17;;;;;;;4.53;3.60;;;;;;;;;;4997287;28;20049;-88
2021/09/18 15:45:42;;;;;;;6.70;4.13;;;;;;;;;;4996658;28;20381;-88
2021/09/18 15:48:08;;;;;;;8.18;5.20;;;;;;;;;;4996743;28;20026;-80
2021/09/18 15:50:34;;;;;;;8.23;4.80;;;;;;;;;;4996816;28;20026;-87
2021/09/18 15:52:59;;;;;;;5.45;4.22;;;;;;;;;;4979227;28;20027;-87
2021/09/18 15:55:25;;;;;;;8.35;4.10;;;;;;;;;;4996510;28;20054;-88
2021/09/18 15:57:50;;;;;;;4.20;3.72;;;;;;;;;;4996627;28;20038;-84
2021/09/18 16:00:16;;;;;;;6.47;4.63;;;;;;;;;;4979030;28;20045;-82
2021/09/18 16:02:41;;;;;;;5.68;4.35;;;;;;;;;;4978795;28;20393;-85
2021/09/18 16:05:07;;;;;;;5.68;3.42;;;;;;;;;;4979236;28;20377;-86
2021/09/18 16:07:33;;;;;;;5.82;3.80;;;;;;;;;;4996376;28;20469;-84
2021/09/18 16:09:58;;;;;;;5.25;3.58;;;;;;;;;;4996419;28;20033;-87
2021/09/18 16:12:24;;;;;;;5.60;4.43;;;;;;;;;;4996102;28;20029;-88
2021/09/18 16:14:49;;;;;;;5.63;3.78;;;;;;;;;;4996409;28;20429;-80
2021/09/18 16:17:15;;;;;;;4.68;4.00;;;;;;;;;;4978831;28;20081;-87
2021/09/18 16:19:40;;;;;;;5.47;4.43;;;;;;;;;;4978735;28;20022;-87
2021/09/18 16:22:06;;;;;;;5.22;4.15;;;;;;;;;;4996141;28;20064;-81
2021/09/18 16:24:31;;;;;;;6.35;3.95;;;;;;;;;;4978996;28;20027;-79
2021/09/18 16:26:57;;;;;;;6.18;4.38;;;;;;;;;;4996078;28;20049;-88
2021/09/18 16:29:22;;;;;;;7.65;3.78;;;;;;;;;;4996119;28;20029;-87
2021/09/18 16:31:48;;;;;;;6.85;4.00;;;;;;;;;;4995911;28;20026;-88
2021/09/18 16:34:13;;;;;;;8.77;4.05;;;;;;;;;;4996027;28;20466;-79
2021/09/18 16:36:39;;;;;;;6.10;4.10;;;;;;;;;;4996085;28;20027;-84
2021/09/18 16:39:04;;;;;;;7.10;3.70;;;;;;;;;;4996007;28;20037;-88
2021/09/18 16:41:30;;;;;;;4.10;3.70;;;;;;;;;;4995820;28;20034;-79
2021/09/18 16:43:55;;;;;;;6.10;4.05;;;;;;;;;;4995661;28;20030;-87
2021/09/18 16:46:20;;;;;;;5.75;4.20;;;;;;;;;;4978092;28;20027;-79
2021/09/18 16:48:46;;;;;;;5.70;3.33;;;;;;;;;;4995631;28;20392;-87
2021/09/18 16:51:13;;;;;;;8.27;4.43;;;;;;;;;;4995685;28;20381;-82
2021/09/18 16:53:40;;;;;;;6.13;3.85;;;;;;;;;;4984014;28;20054;-84
2021/09/18 16:56:07;;;;;;;6.13;3.75;;;;;;;;;;4995302;28;20022;-86
2021/09/18 16:58:33;;;;;;;5.10;3.80;;;;;;;;;;4995837;28;20026;-79
2021/09/18 17:00:59;;;;;;;6.45;4.10;;;;;;;;;;4994670;28;20100;-88
2021/09/18 17:03:24;;;;;;;6.28;3.80;;;;;;;;;;4995275;28;20022;-86
2021/09/18 17:05:50;;;;;;;7.55;3.92;;;;;;;;;;4995404;28;20026;-90
2021/09/18 17:08:15;;;;;;;5.57;4.45;;;;;;;;;;4995413;28;20073;-91
2021/09/18 17:10:41;;;;;;;6.72;4.28;;;;;;;;;;4991319;28;20026;-88
2021/09/18 17:13:06;;;;;;;6.43;4.30;;;;;;;;;;4985007;28;20026;-89
2021/09/18 17:15:32;;;;;;;4.30;3.90;;;;;;;;;;4993504;28;20050;-85
2021/09/18 17:17:57;;;;;;;4.55;3.15;;;;;;;;;;4977550;28;20431;-88
2021/09/18 17:20:23;;;;;;;7.90;3.83;;;;;;;;;;4977736;28;20448;-90
2021/09/18 17:22:48;;;;;;;4.97;4.10;;;;;;;;;;4995243;28;20121;-84
2021/09/18 17:25:14;;;;;;;6.43;3.40;;;;;;;;;;4995393;28;20086;-92
2021/09/18 17:27:40;;;;;;;5.22;3.67;;;;;;;;;;4995103;28;20341;-87
2021/09/18 17:30:07;;;;;;;6.43;5.80;;;;;;;;;;4994708;28;20026;-87
2021/09/18 17:32:33;;;;;;;5.70;3.75;;;;;;;;;;4995763;28;20030;-84
2021/09/18 17:34:58;;;;;;;6.30;4.63;;;;;;;;;;4994619;28;20030;-86
2021/09/18 17:37:28;;;;;;;5.55;4.53;;;;;;;;;;4995035;28;20048;-86
2021/09/18 17:39:55;;;;;;;5.45;4.05;;;;;;;;;;4995104;28;20474;-86
2021/09/18 17:42:22;;;;;;;5.63;3.60;;;;;;;;;;4977266;28;20030;-87
2021/09/18 17:44:50;;;;;;;6.88;3.78;;;;;;;;;;4994739;28;20473;-85
2021/09/18 17:47:16;;;;;;;5.70;4.68;;;;;;;;;;4994585;28;20462;-85
2021/09/18 17:49:41;;;;;;;5.68;4.47;;;;;;;;;;4994736;28;20113;-86
2021/09/18 17:52:07;;;;;;;5.68;3.50;;;;;;;;;;4977066;28;20226;-84
2021/09/18 17:54:32;;;;;;;6.65;4.32;;;;;;;;;;4994248;28;20038;-84
2021/09/18 17:56:58;;;;;;;6.68;4.00;;;;;;;;;;4994831;28;20121;-80
2021/09/18 17:59:23;;;;;;;6.22;3.80;;;;;;;;;;4994326;28;20034;-87
2021/09/18 18:01:50;;;;;;;5.15;3.83;;;;;;;;;;4977774;28;20461;-82
2021/09/18 18:04:16;;;;;;;6.68;4.28;;;;;;;;;;4977859;28;20037;-79
2021/09/18 18:06:42;;;;;;;6.40;3.88;;;;;;;;;;4994986;28;20065;-83
2021/09/18 18:09:08;;;;;;;4.22;3.83;;;;;;;;;;4977367;28;20109;-83
2021/09/18 18:11:34;;;;;;;5.65;4.55;;;;;;;;;;4977297;28;20121;-83
2021/09/18 18:14:00;;;;;;;9.05;4.32;;;;;;;;;;4994336;28;20073;-83
2021/09/18 18:16:27;;;;;;;6.38;4.00;;;;;;;;;;4976510;28;20066;-83
2021/09/18 18:18:53;;;;;;;4.55;3.70;;;;;;;;;;4997360;28;20050;-92
2021/09/18 18:21:18;;;;;;;6.35;4.63;;;;;;;;;;4978017;28;20022;-81
2021/09/18 18:23:43;;;;;;;5.30;3.88;;;;;;;;;;4994345;28;20037;-81
2021/09/18 18:26:10;;;;;;;5.20;3.75;;;;;;;;;;4994564;28;20136;-89
2021/09/18 18:28:41;;;;;;;5.07;3.75;;;;;;;;;;4993648;28;20023;-88
2021/09/18 18:31:07;;;;;;;5.90;4.53;;;;;;;;;;4995049;28;20146;-80
2021/09/18 18:33:33;;;;;;;9.13;6.63;;;;;;;;;;4994394;28;20109;-81
2021/09/18 18:36:00;;;;;;;7.05;4.53;;;;;;;;;;4994327;28;20207;-81
2021/09/18 18:38:26;;;;;;;7.03;4.40;;;;;;;;;;4994376;28;20077;-82
2021/09/18 18:40:52;;;;;;;5.10;4.07;;;;;;;;;;4977875;28;20354;-81
2021/09/18 18:43:17;;;;;;;9.70;4.15;;;;;;;;;;4976586;28;20037;-83
2021/09/18 18:45:42;;;;;;;6.43;4.57;;;;;;;;;;4976260;28;20033;-82
2021/09/18 18:48:08;;;;;;;5.75;4.18;;;;;;;;;;4976589;28;20129;-83
2021/09/18 18:50:35;;;;;;;6.65;5.30;;;;;;;;;;4984794;28;20031;-84
2021/09/18 18:53:02;;;;;;;7.05;5.68;;;;;;;;;;4966372;28;20027;-87
2021/09/18 18:55:28;;;;;;;6.20;4.35;;;;;;;;;;4969294;28;20047;-81
2021/09/18 18:57:53;;;;;;;7.20;4.60;;;;;;;;;;4974279;28;20045;-81
2021/09/18 19:00:21;;;;;;;8.48;6.07;;;;;;;;;;4973397;28;20034;-81
2021/09/18 19:02:46;;;;;;;6.40;4.25;;;;;;;;;;4974496;28;20462;-82
2021/09/18 19:05:12;;;;;;;6.35;4.30;;;;;;;;;;4974312;28;20030;-81
2021/09/18 19:07:42;;;;;;;7.60;4.50;;;;;;;;;;4974412;28;20035;-82
2021/09/18 19:10:10;;;;;;;4.90;3.88;;;;;;;;;;4974427;28;20050;-83
2021/09/18 19:12:35;;;;;;;8.25;4.80;;;;;;;;;;4974370;28;20077;-84
2021/09/18 19:15:01;;;;;;;6.78;4.90;;;;;;;;;;4974320;28;20459;-85
2021/09/18 19:17:27;;;;;;;6.47;4.60;;;;;;;;;;4974329;28;20058;-83
2021/09/18 19:19:52;;;;;;;5.80;4.35;;;;;;;;;;4973020;28;20043;-83
2021/09/18 19:22:23;;;;;;;6.03;3.67;;;;;;;;;;4981097;28;20066;-83
2021/09/18 19:24:50;;;;;;;4.97;3.90;;;;;;;;;;4985233;28;20034;-83
2021/09/18 19:27:15;;;;;;;5.75;4.18;;;;;;;;;;4992313;28;20109;-83
2021/09/18 19:29:41;;;;;;;4.60;4.15;;;;;;;;;;4977047;28;20541;-84
2021/09/18 19:32:06;;;;;;;7.80;3.92;;;;;;;;;;4973796;28;20038;-84
2021/09/18 19:34:31;;;;;;;5.38;3.85;;;;;;;;;;4972730;28;20397;-83
2021/09/18 19:36:57;;;;;;;8.25;4.00;;;;;;;;;;4980047;28;20018;-83
2021/09/18 19:39:22;;;;;;;5.70;4.78;;;;;;;;;;4994284;28;20037;-84
2021/09/18 19:41:48;;;;;;;6.88;4.20;;;;;;;;;;4987922;28;20469;-83
2021/09/18 19:44:13;;;;;;;7.75;3.95;;;;;;;;;;4964231;28;20026;-83
2021/09/18 19:46:42;;;;;;;7.65;4.45;;;;;;;;;;4961748;28;20046;-83
2021/09/18 19:49:07;;;;;;;5.60;4.18;;;;;;;;;;4972333;28;20037;-83
2021/09/18 19:51:32;;;;;;;4.93;3.83;;;;;;;;;;4976799;28;20440;-83
2021/09/18 19:53:58;;;;;;;4.32;3.80;;;;;;;;;;4975281;28;20042;-83
2021/09/18 19:56:24;;;;;;;5.18;3.50;;;;;;;;;;4974915;28;20041;-83
2021/09/18 19:58:49;;;;;;;5.30;4.03;;;;;;;;;;4975010;28;20026;-83
2021/09/18 20:01:15;;;;;;;8.23;4.13;;;;;;;;;;4976511;28;20077;-82
2021/09/18 20:03:40;;;;;;;7.10;3.92;;;;;;;;;;4976283;28;20370;-83
2021/09/18 20:06:05;;;;;;;5.53;4.60;;;;;;;;;;4976507;28;20039;-83
2021/09/18 20:08:31;;;;;;;4.43;4.03;;;;;;;;;;4976066;28;20026;-83
2021/09/18 20:10:57;;;;;;;5.22;3.42;;;;;;;;;;4976376;28;20027;-83
2021/09/18 20:13:22;;;;;;;6.55;3.78;;;;;;;;;;4976247;28;20029;-82
2021/09/18 20:15:48;;;;;;;4.88;3.88;;;;;;;;;;4975987;28;20023;-83
2021/09/18 20:18:14;;;;;;;4.68;3.72;;;;;;;;;;4976060;28;20540;-83
2021/09/18 20:20:40;;;;;;;5.45;3.63;;;;;;;;;;4975999;28;20026;-83
2021/09/18 20:23:05;;;;;;;6.07;3.45;;;;;;;;;;4976333;28;20033;-83
2021/09/18 20:25:31;;;;;;;5.63;3.85;;;;;;;;;;4975448;28;20037;-83
2021/09/18 20:27:57;;;;;;;6.80;3.95;;;;;;;;;;4974786;28;20397;-83
2021/09/18 20:30:23;;;;;;;5.57;3.53;;;;;;;;;;4976043;28;20027;-83
2021/09/18 20:32:51;;;;;;;5.50;3.83;;;;;;;;;;4974389;28;20034;-83
2021/09/18 20:35:17;;;;;;;5.18;4.10;;;;;;;;;;4975869;28;20027;-83
2021/09/18 20:37:43;;;;;;;8.07;4.05;;;;;;;;;;4975440;28;20023;-83
2021/09/18 20:40:09;;;;;;;5.57;3.60;;;;;;;;;;4975865;28;20545;-83
2021/09/18 20:42:35;;;;;;;7.85;4.03;;;;;;;;;;4975510;28;20133;-83
2021/09/18 20:45:00;;;;;;;5.90;4.13;;;;;;;;;;4974374;28;20529;-83
2021/09/18 20:47:26;;;;;;;4.13;3.53;;;;;;;;;;4975716;28;20477;-83
2021/09/18 20:49:51;;;;;;;7.07;4.38;;;;;;;;;;4975462;28;20021;-83
2021/09/18 20:52:17;;;;;;;6.38;4.13;;;;;;;;;;4974616;28;20102;-84
2021/09/18 20:54:42;;;;;;;6.05;3.60;;;;;;;;;;4988360;28;20048;-84
2021/09/18 20:57:07;;;;;;;5.03;3.95;;;;;;;;;;4994879;28;20366;-84
2021/09/18 20:59:33;;;;;;;7.85;4.03;;;;;;;;;;4977397;28;20488;-83
2021/09/18 21:04:27;;;;;;;4.75;3.65;;;;;;;;;;4994788;28;20026;-84
2021/09/18 21:06:57;;;;;;;6.72;4.30;;;;;;;;;;4987723;28;20073;-84
2021/09/18 21:09:24;;;;;;;6.90;3.47;;;;;;;;;;4985079;28;20018;-83
2021/09/18 21:11:50;;;;;;;5.93;4.10;;;;;;;;;;4987672;28;20141;-83
2021/09/18 21:14:16;;;;;;;5.97;4.18;;;;;;;;;;4968212;28;20473;-83
2021/09/18 21:16:42;;;;;;;4.07;3.65;;;;;;;;;;4983972;28;20073;-83
2021/09/18 21:19:08;;;;;;;8.95;4.32;;;;;;;;;;4988976;28;20018;-83
2021/09/18 21:21:35;;;;;;;5.82;4.15;;;;;;;;;;4984131;28;20026;-83
2021/09/18 21:24:00;;;;;;;7.93;4.38;;;;;;;;;;4988117;28;20125;-83
2021/09/18 21:26:27;;;;;;;7.22;6.00;;;;;;;;;;4988075;28;20153;-83
2021/09/18 21:28:52;;;;;;;5.72;4.55;;;;;;;;;;4976880;28;20030;-83
2021/09/18 21:31:18;;;;;;;9.48;4.07;;;;;;;;;;4994180;28;20030;-83
2021/09/18 21:33:44;;;;;;;4.80;4.30;;;;;;;;;;4994173;28;20023;-83
2021/09/18 21:36:09;;;;;;;6.82;3.80;;;;;;;;;;4993916;28;20034;-83
2021/09/18 21:38:35;;;;;;;5.53;4.20;;;;;;;;;;4994191;28;20466;-83
2021/09/18 21:41:00;;;;;;;6.75;4.05;;;;;;;;;;4976718;28;20030;-83
2021/09/18 21:43:25;;;;;;;4.43;3.83;;;;;;;;;;4994006;28;20081;-83
2021/09/18 21:45:52;;;;;;;6.20;4.15;;;;;;;;;;4976286;28;20033;-83
2021/09/18 21:48:19;;;;;;;6.25;3.83;;;;;;;;;;4994060;28;20041;-83
2021/09/18 21:50:45;;;;;;;7.40;3.97;;;;;;;;;;4976422;28;20027;-83
2021/09/18 21:53:11;;;;;;;6.80;4.63;;;;;;;;;;4993534;28;20030;-83
2021/09/18 21:55:37;;;;;;;4.97;4.10;;;;;;;;;;4976349;28;20037;-84
2021/09/18 21:58:03;;;;;;;4.88;4.03;;;;;;;;;;4993622;28;20034;-83
2021/09/18 22:00:31;;;;;;;5.75;4.55;;;;;;;;;;4976532;28;20023;-84
2021/09/18 22:03:01;;;;;;;6.47;4.88;;;;;;;;;;4993662;28;20022;-84
2021/09/18 22:05:27;;;;;;;8.45;5.35;;;;;;;;;;4980339;28;20026;-84
2021/09/18 22:07:53;;;;;;;5.85;4.50;;;;;;;;;;4993796;28;20023;-84
2021/09/18 22:10:18;;;;;;;6.72;4.20;;;;;;;;;;4993605;28;20031;-87
2021/09/18 22:12:44;;;;;;;8.55;4.10;;;;;;;;;;4993727;28;20026;-80
2021/09/18 22:15:10;;;;;;;5.78;4.03;;;;;;;;;;4993647;28;20081;-83
2021/09/18 22:17:36;;;;;;;4.97;3.92;;;;;;;;;;4976321;28;20030;-84
